createdAt,value
2022-09-23T00:01:22.730Z,68
2022-09-23T00:16:22.660Z,70
2022-09-23T00:31:22.739Z,70
2022-09-23T00:46:22.694Z,71
2022-09-23T01:01:22.706Z,71
2022-09-23T01:16:22.641Z,72
2022-09-23T01:31:22.629Z,72
2022-09-23T02:01:22.611Z,72
2022-09-23T02:16:22.551Z,72
2022-09-23T02:31:22.489Z,72
2022-09-23T02:46:22.541Z,73
2022-09-23T03:01:22.564Z,73
2022-09-23T03:16:22.484Z,75
2022-09-23T03:31:22.396Z,76
2022-09-23T03:46:22.347Z,76
2022-09-23T04:01:22.487Z,78
2022-09-23T04:16:22.386Z,78
2022-09-23T04:31:22.332Z,79
2022-09-23T04:46:22.335Z,79
2022-09-23T05:01:22.313Z,79
2022-09-23T05:16:22.269Z,79
2022-09-23T05:31:22.257Z,79
2022-09-23T05:46:22.234Z,80
2022-09-23T06:01:22.234Z,80
2022-09-23T06:16:22.254Z,80
2022-09-23T06:31:22.199Z,79
2022-09-23T06:46:22.196Z,77
2022-09-23T07:01:22.203Z,74
2022-09-23T07:16:22.149Z,70
2022-09-23T07:31:32.876Z,66
2022-09-23T07:46:22.087Z,63
2022-09-23T08:01:22.071Z,61
2022-09-23T08:16:21.998Z,57
2022-09-23T08:46:21.988Z,55
2022-09-23T09:01:22.196Z,53
2022-09-23T09:16:41.814Z,52
2022-09-23T09:31:21.918Z,51
2022-09-23T09:46:21.868Z,52
2022-09-23T10:01:21.835Z,53
2022-09-23T10:16:21.749Z,53
2022-09-23T10:31:21.694Z,53
2022-09-23T10:46:21.774Z,52
2022-09-23T11:01:21.707Z,49
2022-09-23T11:16:21.641Z,47
2022-09-23T11:31:21.658Z,48
2022-09-23T11:46:21.615Z,47
2022-09-23T12:01:31.351Z,47
2022-09-23T12:16:21.565Z,48
2022-09-23T12:31:21.473Z,49
2022-09-23T12:46:21.612Z,50
2022-09-23T13:01:21.572Z,51
2022-09-23T13:16:21.499Z,52
2022-09-23T13:31:21.499Z,52
2022-09-23T13:46:21.510Z,53
2022-09-23T14:01:21.418Z,53
2022-09-23T14:16:21.343Z,53
2022-09-23T14:31:21.344Z,53
2022-09-23T14:46:21.353Z,53
2022-09-23T15:01:21.299Z,52
2022-09-23T15:16:21.236Z,52
2022-09-23T15:31:21.246Z,52
2022-09-23T15:46:21.235Z,53
2022-09-23T16:01:21.200Z,54
2022-09-23T16:16:21.269Z,53
2022-09-23T16:31:21.147Z,53
2022-09-23T16:46:21.254Z,55
2022-09-23T17:01:21.108Z,56
2022-09-23T17:16:21.080Z,56
2022-09-23T17:31:21.012Z,55
2022-09-23T17:46:21.104Z,56
2022-09-23T18:01:21.060Z,55
2022-09-23T18:16:20.969Z,54
2022-09-23T18:31:20.899Z,55
2022-09-23T18:46:20.909Z,57
2022-09-23T19:01:21.007Z,58
2022-09-23T19:16:20.833Z,59
2022-09-23T19:31:20.932Z,60
2022-09-23T19:46:20.764Z,61
2022-09-23T20:01:20.823Z,61
2022-09-23T20:16:20.792Z,62
2022-09-23T20:31:20.761Z,63
2022-09-23T20:46:20.672Z,64
2022-09-23T21:01:20.709Z,64
2022-09-23T21:16:20.668Z,64
2022-09-23T21:31:20.656Z,64
2022-09-23T21:46:20.874Z,65
2022-09-23T22:01:20.686Z,65
2022-09-23T22:16:20.545Z,65
2022-09-23T22:31:20.509Z,66
2022-09-23T22:46:20.447Z,67
2022-09-23T23:01:20.498Z,67
2022-09-23T23:16:20.412Z,70
2022-09-23T23:31:20.413Z,74
2022-09-23T23:46:20.369Z,75
